createdAt,value
2019-01-22T00:00:21.813Z,101064.67
2019-01-22T00:02:52.998Z,101062.18
2019-01-22T00:05:23.826Z,101060.95
2019-01-22T00:07:54.654Z,101058.05
2019-01-22T00:10:25.482Z,101058.38
2019-01-22T00:12:56.413Z,101052.19
2019-01-22T00:15:27.470Z,101042.46
2019-01-22T00:17:58.228Z,101048.16
2019-01-22T00:20:29.043Z,101042.06
2019-01-22T00:23:02.914Z,101043.75
2019-01-22T00:25:32.425Z,101041.04
2019-01-22T00:28:03.257Z,101041.44
2019-01-22T00:30:34.141Z,101038.06
2019-01-22T00:33:05.472Z,101031.85
2019-01-22T00:35:36.361Z,101035.00
2019-01-22T00:38:07.265Z,101039.00
2019-01-22T00:40:38.042Z,101034.02
2019-01-22T00:43:08.765Z,101029.45
2019-01-22T00:45:39.525Z,101028.38
2019-01-22T00:48:10.333Z,101023.81
2019-01-22T00:50:41.442Z,101029.53
2019-01-22T00:53:12.248Z,101025.23
2019-01-22T00:55:43.117Z,101022.34
2019-01-22T00:58:14.045Z,101019.19
2019-01-22T01:00:44.838Z,101010.44
2019-01-22T01:03:16.029Z,101017.76
2019-01-22T01:05:46.797Z,101007.69
2019-01-22T01:08:17.608Z,101005.69
2019-01-22T01:10:48.364Z,101001.03
2019-01-22T01:13:19.168Z,101004.23
2019-01-22T01:15:50.120Z,101000.63
2019-01-22T01:18:20.944Z,100994.91
2019-01-22T01:20:51.699Z,100989.58
2019-01-22T01:23:22.506Z,100996.19
2019-01-22T01:25:53.263Z,100992.23
2019-01-22T01:28:24.069Z,100991.60
2019-01-22T01:30:54.901Z,100989.73
2019-01-22T01:33:25.751Z,100991.66
2019-01-22T01:35:56.644Z,100985.87
2019-01-22T01:38:27.430Z,100984.19
2019-01-22T01:40:58.246Z,100984.98
2019-01-22T01:43:29.096Z,100981.86
2019-01-22T01:45:59.895Z,100974.48
2019-01-22T01:48:30.676Z,100969.56
2019-01-22T01:51:01.577Z,100969.08
2019-01-22T01:53:32.329Z,100967.16
2019-01-22T01:56:03.144Z,100965.21
2019-01-22T01:58:34.027Z,100962.33
2019-01-22T02:01:04.933Z,100956.12
2019-01-22T02:03:35.809Z,100950.66
2019-01-22T02:06:06.697Z,100951.72
2019-01-22T02:08:37.494Z,100943.91
2019-01-22T02:11:24.949Z,100944.54
2019-01-22T02:14:01.569Z,100941.34
2019-01-22T02:17:23.687Z,100934.91
2019-01-22T02:20:49.309Z,100926.95
2019-01-22T02:24:55.881Z,100924.43
2019-01-22T02:28:54.649Z,100919.94
2019-01-22T02:32:15.077Z,100921.63
2019-01-22T02:35:29.725Z,100916.72
2019-01-22T02:38:59.554Z,100913.91
2019-01-22T02:41:50.247Z,100916.80
2019-01-22T02:45:34.619Z,100914.89
2019-01-22T02:48:53.264Z,100910.06
2019-01-22T02:52:22.338Z,100902.66
2019-01-22T02:55:19.364Z,100893.95
2019-01-22T02:58:50.303Z,100880.44
2019-01-22T03:02:35.683Z,100878.67
2019-01-22T03:05:52.173Z,100874.50
2019-01-22T03:09:07.436Z,100878.09
2019-01-22T03:12:31.624Z,100872.02
2019-01-22T03:16:15.992Z,100875.05
2019-01-22T03:19:39.401Z,100863.97
2019-01-22T03:23:07.508Z,100866.63
2019-01-22T03:26:07.858Z,100864.55
2019-01-22T03:29:41.702Z,100870.63
2019-01-22T03:32:57.974Z,100866.32
2019-01-22T03:37:09.044Z,100862.77
2019-01-22T03:40:41.152Z,100865.88
2019-01-22T03:44:25.216Z,100860.52
2019-01-22T03:47:46.614Z,100861.63
2019-01-22T03:50:50.901Z,100857.63
2019-01-22T03:54:42.126Z,100854.97
2019-01-22T03:58:00.321Z,100856.34
2019-01-22T04:01:40.881Z,100851.11
2019-01-22T04:04:14.490Z,100853.36
2019-01-22T04:06:54.524Z,100847.25
2019-01-22T04:09:38.267Z,100846.94
2019-01-22T04:12:13.072Z,100841.80
2019-01-22T04:14:43.967Z,100845.17
2019-01-22T04:17:15.194Z,100843.23
2019-01-22T04:19:46.104Z,100837.99
2019-01-22T04:22:41.783Z,100838.34
2019-01-22T04:25:49.689Z,100837.36
2019-01-22T04:29:33.514Z,100837.67
2019-01-22T04:32:45.185Z,100832.31
2019-01-22T04:36:14.399Z,100837.86
2019-01-22T04:39:48.839Z,100826.42
2019-01-22T04:43:29.896Z,100823.31
2019-01-22T04:46:52.652Z,100819.54
2019-01-22T04:50:25.583Z,100814.39
2019-01-22T04:54:10.620Z,100813.25
2019-01-22T04:57:37.535Z,100814.71
2019-01-22T05:01:15.540Z,100807.88
2019-01-22T05:04:35.887Z,100802.08
2019-01-22T05:07:49.710Z,100804.56
2019-01-22T05:11:29.590Z,100801.86
2019-01-22T05:14:52.652Z,100796.22
2019-01-22T05:18:15.792Z,100795.73
2019-01-22T05:21:51.087Z,100792.28
2019-01-22T05:25:48.785Z,100790.28
2019-01-22T05:29:14.002Z,100789.63
2019-01-22T05:32:41.237Z,100782.39
2019-01-22T05:36:03.107Z,100783.38
2019-01-22T05:39:15.367Z,100779.20
2019-01-22T05:42:49.664Z,100777.02
2019-01-22T05:45:59.690Z,100771.14
2019-01-22T05:49:24.495Z,100765.77
2019-01-22T05:52:17.335Z,100763.75
2019-01-22T05:55:15.881Z,100761.31
2019-01-22T05:58:52.608Z,100755.77
2019-01-22T06:01:32.147Z,100757.72
2019-01-22T06:04:55.772Z,100754.16
2019-01-22T06:08:30.380Z,100762.27
2019-01-22T06:12:12.235Z,100752.09
2019-01-22T06:15:01.574Z,100751.93
2019-01-22T06:18:21.646Z,100754.81
2019-01-22T06:22:01.723Z,100754.81
2019-01-22T06:25:22.822Z,100755.97
2019-01-22T06:28:37.084Z,100746.17
2019-01-22T06:31:52.379Z,100751.23
2019-01-22T06:35:19.735Z,100754.60
2019-01-22T06:38:45.763Z,100747.06
2019-01-22T06:42:10.545Z,100749.55
2019-01-22T06:45:45.479Z,100750.83
2019-01-22T06:49:27.018Z,100754.68
2019-01-22T06:52:48.910Z,100751.53
2019-01-22T06:55:50.227Z,100754.45
2019-01-22T06:59:20.945Z,100747.89
2019-01-22T07:02:16.843Z,100750.86
2019-01-22T07:05:42.516Z,100742.08
2019-01-22T07:09:19.655Z,100747.39
2019-01-22T07:13:01.920Z,100746.02
2019-01-22T07:16:55.367Z,100747.27
2019-01-22T07:20:42.147Z,100750.48
2019-01-22T07:23:55.623Z,100750.45
2019-01-22T07:27:26.008Z,100742.91
2019-01-22T07:30:52.431Z,100744.88
2019-01-22T07:34:10.114Z,100751.11
2019-01-22T07:37:21.542Z,100740.17
2019-01-22T07:40:46.513Z,100741.63
2019-01-22T07:43:45.032Z,100731.23
2019-01-22T07:47:12.548Z,100733.00
2019-01-22T07:50:28.791Z,100732.47
2019-01-22T07:53:31.069Z,100729.72
2019-01-22T07:56:54.249Z,100729.19
2019-01-22T08:00:26.846Z,100728.98
2019-01-22T08:04:16.091Z,100722.43
2019-01-22T08:07:24.386Z,100721.08
2019-01-22T08:10:49.190Z,100719.84
2019-01-22T08:14:18.657Z,100715.86
2019-01-22T08:17:45.460Z,100709.53
2019-01-22T08:21:19.497Z,100707.02
2019-01-22T08:24:36.943Z,100707.41
2019-01-22T08:27:50.371Z,100705.81
2019-01-22T08:31:31.320Z,100706.27
2019-01-22T08:35:01.446Z,100700.61
2019-01-22T08:38:29.494Z,100696.09
2019-01-22T08:41:51.868Z,100697.73
2019-01-22T08:45:11.704Z,100696.52
2019-01-22T08:48:42.284Z,100691.99
2019-01-22T08:52:11.362Z,100690.66
2019-01-22T08:55:46.996Z,100697.73
2019-01-22T08:58:54.796Z,100697.89
2019-01-22T09:02:24.774Z,100691.45
2019-01-22T09:05:46.958Z,100692.95
2019-01-22T09:09:01.369Z,100687.69
2019-01-22T09:12:52.954Z,100687.99
2019-01-22T09:16:37.733Z,100684.72
2019-01-22T09:20:16.532Z,100684.01
2019-01-22T09:23:54.449Z,100679.75
2019-01-22T09:27:16.546Z,100685.33
2019-01-22T09:30:35.832Z,100672.53
2019-01-22T09:34:08.133Z,100671.28
2019-01-22T09:37:11.430Z,100669.72
2019-01-22T09:39:42.375Z,100665.57
2019-01-22T09:42:13.234Z,100659.42
2019-01-22T09:44:44.025Z,100662.72
2019-01-22T09:47:14.822Z,100660.86
2019-01-22T09:49:45.605Z,100656.76
2019-01-22T09:52:16.458Z,100662.60
2019-01-22T09:54:47.261Z,100653.54
2019-01-22T09:57:18.093Z,100650.89
2019-01-22T09:59:49.011Z,100653.73
2019-01-22T10:02:19.847Z,100648.50
2019-01-22T10:04:50.825Z,100647.45
2019-01-22T10:07:24.089Z,100643.86
2019-01-22T10:09:57.746Z,100639.27
2019-01-22T10:12:28.577Z,100634.80
2019-01-22T10:14:59.515Z,100634.66
2019-01-22T10:17:30.291Z,100629.38
2019-01-22T10:20:01.146Z,100632.36
2019-01-22T10:22:32.125Z,100630.36
2019-01-22T10:25:02.947Z,100623.54
2019-01-22T10:27:33.789Z,100621.88
2019-01-22T10:30:05.681Z,100614.99
2019-01-22T10:32:36.446Z,100619.52
2019-01-22T10:35:07.837Z,100620.52
2019-01-22T10:37:38.639Z,100615.55
2019-01-22T10:40:14.952Z,100613.09
2019-01-22T10:42:45.965Z,100612.18
2019-01-22T10:45:18.738Z,100603.20
2019-01-22T10:47:49.800Z,100604.55
2019-01-22T10:50:24.053Z,100594.84
2019-01-22T10:52:54.914Z,100599.26
2019-01-22T10:55:25.755Z,100588.16
2019-01-22T10:57:56.527Z,100584.89
2019-01-22T11:00:32.207Z,100583.80
2019-01-22T11:03:03.069Z,100571.80
2019-01-22T11:05:45.221Z,100578.30
2019-01-22T11:08:18.600Z,100569.27
2019-01-22T11:10:49.465Z,100562.91
2019-01-22T11:13:20.358Z,100559.81
2019-01-22T11:15:53.393Z,100560.59
2019-01-22T11:18:24.274Z,100559.25
2019-01-22T11:21:03.264Z,100549.84
2019-01-22T11:23:34.120Z,100547.59
2019-01-22T11:26:09.679Z,100544.58
2019-01-22T11:28:43.505Z,100538.14
2019-01-22T11:31:16.467Z,100537.68
2019-01-22T11:33:49.783Z,100535.92
2019-01-22T11:36:20.613Z,100532.58
2019-01-22T11:38:51.600Z,100529.43
2019-01-22T11:41:22.436Z,100524.23
2019-01-22T11:43:53.181Z,100514.45
2019-01-22T11:46:24.028Z,100512.42
2019-01-22T11:48:54.853Z,100511.30
2019-01-22T11:51:25.611Z,100509.67
2019-01-22T11:53:57.112Z,100510.47
2019-01-22T11:56:27.940Z,100509.77
2019-01-22T11:59:01.704Z,100502.48
2019-01-22T12:01:32.629Z,100498.63
2019-01-22T12:04:05.339Z,100498.22
2019-01-22T12:06:36.227Z,100491.30
2019-01-22T12:09:10.216Z,100482.68
2019-01-22T12:11:41.082Z,100479.33
2019-01-22T12:14:11.888Z,100476.95
2019-01-22T12:16:42.676Z,100475.23
2019-01-22T12:19:13.428Z,100472.09
2019-01-22T12:21:44.356Z,100475.27
2019-01-22T12:24:15.246Z,100462.20
2019-01-22T12:26:46.111Z,100460.91
2019-01-22T12:29:20.180Z,100455.42
2019-01-22T12:31:54.199Z,100450.81
2019-01-22T12:34:25.112Z,100443.84
2019-01-22T12:36:56.112Z,100441.09
2019-01-22T12:39:27.049Z,100431.99
2019-01-22T12:41:57.996Z,100437.73
2019-01-22T12:44:28.924Z,100436.77
2019-01-22T12:46:59.874Z,100428.44
2019-01-22T12:49:30.702Z,100429.36
2019-01-22T12:52:01.576Z,100418.97
2019-01-22T12:54:32.416Z,100411.63
2019-01-22T12:57:03.448Z,100413.14
2019-01-22T12:59:34.365Z,100405.34
2019-01-22T13:02:05.337Z,100413.17
2019-01-22T13:04:36.142Z,100406.48
2019-01-22T13:07:07.045Z,100401.62
2019-01-22T13:09:37.867Z,100402.32
2019-01-22T13:12:08.762Z,100388.49
2019-01-22T13:14:39.631Z,100384.89
2019-01-22T13:17:10.387Z,100382.64
2019-01-22T13:19:41.168Z,100386.08
2019-01-22T13:22:11.948Z,100379.13
2019-01-22T13:24:42.711Z,100373.55
2019-01-22T13:27:13.572Z,100374.96
2019-01-22T13:29:44.376Z,100371.75
2019-01-22T13:32:15.208Z,100371.68
2019-01-22T13:34:45.966Z,100364.73
2019-01-22T13:37:16.759Z,100364.23
2019-01-22T13:39:47.566Z,100361.29
2019-01-22T13:42:18.329Z,100358.34
2019-01-22T13:44:49.159Z,100349.40
2019-01-22T13:47:19.945Z,100346.66
2019-01-22T13:49:50.691Z,100347.56
2019-01-22T13:52:21.483Z,100337.84
2019-01-22T13:54:52.335Z,100339.46
2019-01-22T13:57:23.091Z,100337.24
2019-01-22T13:59:53.937Z,100334.19
2019-01-22T14:02:24.713Z,100331.98
2019-01-22T14:04:55.574Z,100327.63
2019-01-22T14:07:26.435Z,100326.28
2019-01-22T14:09:57.237Z,100317.16
2019-01-22T14:12:28.146Z,100317.46
2019-01-22T14:14:59.052Z,100319.53
2019-01-22T14:17:29.871Z,100310.41
2019-01-22T14:20:00.684Z,100312.30
2019-01-22T14:22:31.454Z,100307.38
2019-01-22T14:25:02.301Z,100307.95
2019-01-22T14:27:33.079Z,100303.14
2019-01-22T14:30:03.979Z,100296.68
2019-01-22T14:32:34.830Z,100301.07
2019-01-22T14:35:06.635Z,100296.41
2019-01-22T14:37:37.819Z,100294.78
2019-01-22T14:40:11.444Z,100284.63
2019-01-22T14:42:42.303Z,100285.61
2019-01-22T14:45:14.991Z,100288.52
2019-01-22T14:47:45.895Z,100287.72
2019-01-22T14:50:25.906Z,100281.27
2019-01-22T14:52:57.113Z,100274.31
2019-01-22T14:55:28.256Z,100272.87
2019-01-22T14:57:59.166Z,100273.59
2019-01-22T15:00:30.944Z,100273.51
2019-01-22T15:03:03.719Z,100269.65
2019-01-22T15:05:37.481Z,100265.88
2019-01-22T15:08:08.394Z,100267.36
2019-01-22T15:10:39.265Z,100259.55
2019-01-22T15:13:10.072Z,100260.94
2019-01-22T15:15:53.435Z,100260.26
2019-01-22T15:19:01.465Z,100257.63
2019-01-22T15:21:32.289Z,100251.14
2019-01-22T15:24:03.078Z,100246.91
2019-01-22T15:26:39.371Z,100243.78
2019-01-22T15:29:06.534Z,100238.22
2019-01-22T15:31:37.398Z,100235.41
2019-01-22T15:34:08.254Z,100237.78
2019-01-22T15:36:39.187Z,100234.89
2019-01-22T15:39:11.024Z,100232.91
2019-01-22T15:41:41.947Z,100232.59
2019-01-22T15:44:21.588Z,100226.66
2019-01-22T15:46:52.566Z,100221.20
2019-01-22T15:49:23.426Z,100226.06
2019-01-22T15:51:54.619Z,100220.23
2019-01-22T15:54:25.910Z,100221.11
2019-01-22T15:56:56.858Z,100215.19
2019-01-22T15:59:27.726Z,100214.45
2019-01-22T16:01:58.950Z,100206.55
2019-01-22T16:04:29.771Z,100211.40
2019-01-22T16:07:00.610Z,100208.53
2019-01-22T16:09:31.438Z,100208.95
2019-01-22T16:12:04.342Z,100204.13
2019-01-22T16:14:35.270Z,100199.87
2019-01-22T16:17:06.227Z,100195.67
2019-01-22T16:19:37.106Z,100198.99
2019-01-22T16:22:08.008Z,100193.30
2019-01-22T16:24:40.154Z,100196.41
2019-01-22T16:27:11.226Z,100193.30
2019-01-22T16:29:42.117Z,100193.53
2019-01-22T16:32:13.079Z,100194.78
2019-01-22T16:34:43.980Z,100191.27
2019-01-22T16:37:15.202Z,100185.91
2019-01-22T16:39:46.314Z,100180.82
2019-01-22T16:42:17.146Z,100186.19
2019-01-22T16:44:47.976Z,100181.50
2019-01-22T16:47:18.802Z,100188.28
2019-01-22T16:49:49.584Z,100182.65
2019-01-22T16:52:20.978Z,100186.86
2019-01-22T16:54:52.541Z,100174.56
2019-01-22T16:57:23.518Z,100175.54
2019-01-22T16:59:54.414Z,100174.88
2019-01-22T17:02:25.268Z,100170.34
2019-01-22T17:04:56.409Z,100164.04
2019-01-22T17:07:27.421Z,100169.63
2019-01-22T17:09:58.380Z,100159.91
2019-01-22T17:12:29.269Z,100156.75
2019-01-22T17:15:00.145Z,100158.09
2019-01-22T17:17:31.381Z,100158.87
2019-01-22T17:20:02.604Z,100150.44
2019-01-22T17:22:33.794Z,99985.23
2019-01-22T17:25:08.143Z,100149.77
2019-01-22T17:27:39.051Z,100146.45
2019-01-22T17:30:15.095Z,100145.32
2019-01-22T17:33:03.910Z,100146.56
2019-01-22T17:35:36.641Z,100145.09
2019-01-22T17:38:07.612Z,100146.06
2019-01-22T17:40:38.705Z,100139.63
2019-01-22T17:43:09.661Z,100137.97
2019-01-22T17:45:40.670Z,100138.04
2019-01-22T17:48:11.801Z,100140.26
2019-01-22T17:50:42.713Z,100134.83
2019-01-22T17:53:23.090Z,100138.45
2019-01-22T17:55:58.261Z,100132.66
2019-01-22T17:58:31.252Z,100126.98
2019-01-22T18:01:06.343Z,100126.96
2019-01-22T18:03:39.549Z,100128.83
2019-01-22T18:06:12.757Z,100121.58
2019-01-22T18:08:43.673Z,100128.55
2019-01-22T18:11:14.897Z,100117.02
2019-01-22T18:13:46.177Z,100122.56
2019-01-22T18:16:17.255Z,100124.44
2019-01-22T18:19:00.525Z,100126.03
2019-01-22T18:21:34.670Z,100123.03
2019-01-22T18:24:22.355Z,100117.55
2019-01-22T18:26:54.455Z,100114.72
2019-01-22T18:29:25.449Z,100117.14
2019-01-22T18:31:56.445Z,100115.80
2019-01-22T18:34:27.323Z,100113.84
2019-01-22T18:36:58.267Z,100115.95
2019-01-22T18:39:29.207Z,100111.19
2019-01-22T18:42:00.093Z,100110.11
2019-01-22T18:44:30.984Z,100113.62
2019-01-22T18:47:01.781Z,100109.06
2019-01-22T18:49:32.698Z,100105.20
2019-01-22T18:52:03.472Z,100110.77
2019-01-22T18:54:34.328Z,100106.17
2019-01-22T18:57:05.245Z,100102.14
2019-01-22T18:59:36.121Z,100098.67
2019-01-22T19:02:07.284Z,100098.58
2019-01-22T19:04:38.274Z,100096.15
2019-01-22T19:07:09.425Z,100091.11
2019-01-22T19:10:03.770Z,100097.47
2019-01-22T19:12:23.999Z,100095.25
2019-01-22T19:14:59.351Z,100092.94
2019-01-22T19:17:30.075Z,100082.06
2019-01-22T19:20:03.749Z,100085.84
2019-01-22T19:22:34.686Z,100079.62
2019-01-22T19:25:09.452Z,100080.36
2019-01-22T19:27:43.017Z,100077.61
2019-01-22T19:30:17.971Z,100078.28
2019-01-22T19:32:49.856Z,100079.34
2019-01-22T19:35:20.854Z,100081.04
2019-01-22T19:37:51.971Z,100080.14
2019-01-22T19:40:23.260Z,100079.16
2019-01-22T19:42:54.315Z,100077.01
2019-01-22T19:45:35.076Z,100076.45
2019-01-22T19:48:08.207Z,100076.23
2019-01-22T19:50:39.403Z,100070.72
2019-01-22T19:53:10.504Z,100073.30
2019-01-22T19:55:41.673Z,100072.55
2019-01-22T19:58:12.756Z,100077.07
2019-01-22T20:00:45.474Z,100073.99
2019-01-22T20:03:16.659Z,100072.47
2019-01-22T20:05:47.967Z,100070.64
2019-01-22T20:08:19.085Z,100079.20
2019-01-22T20:10:53.311Z,100074.58
2019-01-22T20:13:24.637Z,100071.88
2019-01-22T20:15:55.647Z,100067.77
2019-01-22T20:18:26.740Z,100073.92
2019-01-22T20:20:57.608Z,100073.70
2019-01-22T20:23:28.890Z,100076.09
2019-01-22T20:25:59.878Z,100074.74
2019-01-22T20:28:30.924Z,100073.04
2019-01-22T20:31:01.961Z,100077.30
2019-01-22T20:33:32.987Z,100074.36
2019-01-22T20:36:04.008Z,100077.70
2019-01-22T20:38:34.998Z,100074.59
2019-01-22T20:41:06.180Z,100079.81
2019-01-22T20:43:37.104Z,100069.12
2019-01-22T20:46:07.932Z,100071.63
2019-01-22T20:48:38.828Z,100068.41
2019-01-22T20:51:09.653Z,100067.80
2019-01-22T20:53:40.522Z,100060.94
2019-01-22T20:56:11.408Z,100062.23
2019-01-22T20:58:42.213Z,100062.68
2019-01-22T21:01:13.192Z,100062.68
2019-01-22T21:03:44.144Z,100064.26
2019-01-22T21:06:16.304Z,100067.51
2019-01-22T21:08:47.155Z,100055.47
2019-01-22T21:11:19.019Z,100061.27
2019-01-22T21:13:49.898Z,100057.02
2019-01-22T21:16:20.670Z,100058.08
2019-01-22T21:18:51.558Z,100058.70
2019-01-22T21:21:22.408Z,100047.84
2019-01-22T21:23:53.294Z,100051.96
2019-01-22T21:26:24.160Z,100046.95
2019-01-22T21:28:55.050Z,100046.69
2019-01-22T21:31:29.002Z,100044.96
2019-01-22T21:33:59.978Z,100034.98
2019-01-22T21:36:30.898Z,100042.77
2019-01-22T21:39:01.716Z,100029.50
2019-01-22T21:41:32.663Z,100025.96
2019-01-22T21:44:03.503Z,100026.63
2019-01-22T21:46:34.601Z,100019.46
2019-01-22T21:49:05.426Z,100022.33
2019-01-22T21:51:36.337Z,100016.77
2019-01-22T21:54:07.244Z,100023.62
2019-01-22T21:56:38.243Z,100020.72
2019-01-22T21:59:09.017Z,100022.09
2019-01-22T22:01:40.002Z,100025.34
2019-01-22T22:04:10.854Z,100024.49
2019-01-22T22:06:41.745Z,100012.92
2019-01-22T22:09:12.677Z,100021.19
2019-01-22T22:11:43.463Z,100022.10
2019-01-22T22:14:14.340Z,100017.89
2019-01-22T22:16:45.211Z,100013.86
2019-01-22T22:19:16.057Z,100018.25
2019-01-22T22:21:46.879Z,100009.74
2019-01-22T22:24:17.703Z,100014.81
2019-01-22T22:26:48.495Z,100005.51
2019-01-22T22:29:19.369Z,100003.00
2019-01-22T22:31:50.335Z,100002.67
2019-01-22T22:34:21.222Z,99999.20
2019-01-22T22:36:52.111Z,99996.09
2019-01-22T22:39:22.944Z,99997.84
2019-01-22T22:41:53.783Z,99998.20
2019-01-22T22:44:24.715Z,99998.35
2019-01-22T22:46:55.521Z,99996.19
2019-01-22T22:49:26.275Z,99990.10
2019-01-22T22:51:57.169Z,99989.12
2019-01-22T22:54:27.942Z,99980.16
2019-01-22T22:56:58.701Z,99979.99
2019-01-22T22:59:29.519Z,99978.05
2019-01-22T23:02:00.458Z,99976.92
2019-01-22T23:04:31.266Z,99977.74
2019-01-22T23:07:02.096Z,99975.17
2019-01-22T23:09:32.947Z,99972.65
2019-01-22T23:12:03.939Z,99970.05
2019-01-22T23:14:34.756Z,99964.95
2019-01-22T23:17:05.542Z,99964.55
2019-01-22T23:19:36.509Z,99963.61
2019-01-22T23:22:07.373Z,99961.45
2019-01-22T23:24:38.201Z,99953.78
2019-01-22T23:27:08.944Z,99959.77
2019-01-22T23:29:39.783Z,99958.97
2019-01-22T23:32:10.574Z,99952.17
2019-01-22T23:34:41.475Z,99954.75
2019-01-22T23:37:12.355Z,99953.51
2019-01-22T23:39:43.122Z,99947.51
2019-01-22T23:42:13.919Z,99945.33
2019-01-22T23:44:44.755Z,99945.38
2019-01-22T23:47:15.620Z,99948.82
2019-01-22T23:49:46.422Z,99944.29
2019-01-22T23:52:17.195Z,99932.97
2019-01-22T23:54:48.061Z,99939.25
2019-01-22T23:57:18.878Z,99935.55
2019-01-22T23:59:49.666Z,99932.29
